createdAt,value
2023-02-13T00:00:45.279Z,11.60
2023-02-13T00:03:13.345Z,11.70
2023-02-13T00:05:41.302Z,11.70
2023-02-13T00:08:09.360Z,11.60
2023-02-13T00:10:38.180Z,11.60
2023-02-13T00:13:06.274Z,11.60
2023-02-13T00:15:34.427Z,11.60
2023-02-13T00:18:05.147Z,11.60
2023-02-13T00:20:33.261Z,11.60
2023-02-13T00:23:01.261Z,11.60
2023-02-13T00:25:29.454Z,11.60
2023-02-13T00:27:57.528Z,11.60
2023-02-13T00:30:25.623Z,11.50
2023-02-13T00:32:53.711Z,11.50
2023-02-13T00:35:23.939Z,11.50
2023-02-13T00:37:53.979Z,11.50
2023-02-13T00:40:25.708Z,11.50
2023-02-13T00:42:53.829Z,11.50
2023-02-13T00:45:21.931Z,11.50
2023-02-13T00:47:50.009Z,11.50
2023-02-13T00:50:18.272Z,11.50
2023-02-13T00:52:47.641Z,11.40
2023-02-13T00:55:15.725Z,11.50
2023-02-13T00:57:44.070Z,11.40
2023-02-13T01:00:14.355Z,11.40
2023-02-13T01:02:42.855Z,11.50
2023-02-13T01:05:11.197Z,11.40
2023-02-13T01:07:39.329Z,11.40
2023-02-13T01:10:09.214Z,11.40
2023-02-13T01:12:37.267Z,11.40
2023-02-13T01:15:08.808Z,11.40
2023-02-13T01:17:39.646Z,11.40
2023-02-13T01:20:08.451Z,11.40
2023-02-13T01:22:36.867Z,11.40
2023-02-13T01:25:06.419Z,11.40
2023-02-13T01:27:35.851Z,11.40
2023-02-13T01:30:04.034Z,11.40
2023-02-13T01:32:32.118Z,11.40
2023-02-13T01:35:00.224Z,11.40
2023-02-13T01:37:28.228Z,11.40
2023-02-13T01:39:56.382Z,11.30
2023-02-13T01:42:28.071Z,11.30
2023-02-13T01:44:58.868Z,11.30
2023-02-13T01:47:30.469Z,11.30
2023-02-13T01:50:09.546Z,11.30
2023-02-13T01:52:42.480Z,11.30
2023-02-13T01:55:12.298Z,11.30
2023-02-13T01:57:42.954Z,11.30
2023-02-13T02:00:16.978Z,11.30
2023-02-13T02:02:52.681Z,11.30
2023-02-13T02:05:27.993Z,11.30
2023-02-13T02:07:57.204Z,11.20
2023-02-13T02:10:25.828Z,11.20
2023-02-13T02:13:02.646Z,11.20
2023-02-13T02:15:32.244Z,11.10
2023-02-13T02:18:00.535Z,11.10
2023-02-13T02:20:47.750Z,11.00
2023-02-13T02:23:50.974Z,11.00
2023-02-13T02:26:59.989Z,11.00
2023-02-13T02:30:00.476Z,10.90
2023-02-13T02:32:48.988Z,10.90
2023-02-13T02:35:27.697Z,10.90
2023-02-13T02:38:12.067Z,10.90
2023-02-13T02:40:55.485Z,10.90
2023-02-13T02:43:46.073Z,10.90
2023-02-13T02:46:22.354Z,10.90
2023-02-13T02:49:14.930Z,10.90
2023-02-13T02:51:52.413Z,10.90
2023-02-13T02:54:43.827Z,11.00
2023-02-13T02:57:16.428Z,11.00
2023-02-13T03:00:07.783Z,10.90
2023-02-13T03:02:53.712Z,10.90
2023-02-13T03:05:46.002Z,10.90
2023-02-13T03:08:15.117Z,10.90
2023-02-13T03:11:00.724Z,10.90
2023-02-13T03:13:39.440Z,10.90
2023-02-13T03:16:25.322Z,10.90
2023-02-13T03:19:14.677Z,10.90
2023-02-13T03:22:08.321Z,10.90
2023-02-13T03:24:47.069Z,10.90
2023-02-13T03:27:45.177Z,10.90
2023-02-13T03:30:24.104Z,10.90
2023-02-13T03:33:02.766Z,10.90
2023-02-13T03:35:55.941Z,10.90
2023-02-13T03:38:29.162Z,10.90
2023-02-13T03:41:21.276Z,10.90
2023-02-13T03:43:59.483Z,10.90
2023-02-13T03:46:30.435Z,10.90
2023-02-13T03:49:18.010Z,10.90
2023-02-13T03:51:52.535Z,10.90
2023-02-13T03:54:42.915Z,10.90
2023-02-13T03:57:30.219Z,10.90
2023-02-13T03:59:59.586Z,10.90
2023-02-13T04:02:33.566Z,10.90
2023-02-13T04:05:08.595Z,10.90
2023-02-13T04:07:36.864Z,10.90
2023-02-13T04:10:09.750Z,10.90
2023-02-13T04:12:42.699Z,10.90
2023-02-13T04:15:15.140Z,10.90
2023-02-13T04:17:47.936Z,10.90
2023-02-13T04:20:16.388Z,10.90
2023-02-13T04:22:45.739Z,10.90
2023-02-13T04:25:17.823Z,10.90
2023-02-13T04:27:45.944Z,10.90
2023-02-13T04:30:14.980Z,10.90
2023-02-13T04:32:43.068Z,10.90
2023-02-13T04:35:11.630Z,10.90
2023-02-13T04:37:39.677Z,10.90
2023-02-13T04:40:08.619Z,10.80
2023-02-13T04:42:38.063Z,10.80
2023-02-13T04:45:06.626Z,10.80
2023-02-13T04:47:34.785Z,10.70
2023-02-13T04:50:02.711Z,10.70
2023-02-13T04:52:30.675Z,10.70
2023-02-13T04:54:58.752Z,10.70
2023-02-13T04:57:26.767Z,10.70
2023-02-13T04:59:56.139Z,10.70
2023-02-13T05:02:24.135Z,10.70
2023-02-13T05:04:52.164Z,10.70
2023-02-13T05:07:20.259Z,10.70
2023-02-13T05:09:48.295Z,10.70
2023-02-13T05:12:16.797Z,10.70
2023-02-13T05:14:44.825Z,10.80
2023-02-13T05:17:14.340Z,10.80
2023-02-13T05:19:42.354Z,10.80
2023-02-13T05:22:29.288Z,10.80
2023-02-13T05:24:57.372Z,10.80
2023-02-13T05:27:25.456Z,10.80
2023-02-13T05:29:53.442Z,10.80
2023-02-13T05:32:22.874Z,10.80
2023-02-13T05:34:50.938Z,10.80
2023-02-13T05:37:18.963Z,10.80
2023-02-13T05:39:46.996Z,10.80
2023-02-13T05:42:14.938Z,10.80
2023-02-13T05:44:42.914Z,10.80
2023-02-13T05:47:10.933Z,10.80
2023-02-13T05:49:40.325Z,10.80
2023-02-13T05:52:08.394Z,10.80
2023-02-13T05:54:38.378Z,10.70
2023-02-13T05:57:06.490Z,10.70
2023-02-13T05:59:34.478Z,10.70
2023-02-13T06:02:02.664Z,10.70
2023-02-13T06:04:30.792Z,10.60
2023-02-13T06:07:00.219Z,10.60
2023-02-13T06:09:28.155Z,10.50
2023-02-13T06:11:56.239Z,10.50
2023-02-13T06:14:24.314Z,10.50
2023-02-13T06:16:52.400Z,10.50
2023-02-13T06:19:20.450Z,10.50
2023-02-13T06:21:48.506Z,10.50
2023-02-13T06:24:17.960Z,10.40
2023-02-13T06:26:46.011Z,10.40
2023-02-13T06:29:14.016Z,10.40
2023-02-13T06:31:42.203Z,10.40
2023-02-13T06:34:10.575Z,10.40
2023-02-13T06:36:38.689Z,10.40
2023-02-13T06:39:06.828Z,10.30
2023-02-13T06:41:36.430Z,10.30
2023-02-13T06:44:04.694Z,10.30
2023-02-13T06:46:32.877Z,10.30
2023-02-13T06:49:01.160Z,10.30
2023-02-13T06:51:29.136Z,10.20
2023-02-13T06:53:57.172Z,10.20
2023-02-13T06:56:26.392Z,10.20
2023-02-13T06:58:55.787Z,10.20
2023-02-13T07:01:23.941Z,10.20
2023-02-13T07:03:52.044Z,10.20
2023-02-13T07:06:20.447Z,10.20
2023-02-13T07:08:51.264Z,10.10
2023-02-13T07:11:19.873Z,10.10
2023-02-13T07:13:48.001Z,10.10
2023-02-13T07:16:17.676Z,10.10
2023-02-13T07:18:45.711Z,10.20
2023-02-13T07:21:13.899Z,10.20
2023-02-13T07:23:42.200Z,10.10
2023-02-13T07:26:11.114Z,10.10
2023-02-13T07:28:39.402Z,10.20
2023-02-13T07:31:07.832Z,10.20
2023-02-13T07:33:37.725Z,10.20
2023-02-13T07:36:06.279Z,10.20
2023-02-13T07:38:34.419Z,10.10
2023-02-13T07:41:03.308Z,10.10
2023-02-13T07:43:31.825Z,10.10
2023-02-13T07:46:00.822Z,10.10
2023-02-13T07:48:31.630Z,10.10
2023-02-13T07:51:03.573Z,10.10
2023-02-13T07:53:31.841Z,10.20
2023-02-13T07:56:00.032Z,10.20
2023-02-13T07:58:28.128Z,10.20
2023-02-13T08:00:56.499Z,10.20
2023-02-13T08:03:24.650Z,10.20
2023-02-13T08:05:52.824Z,10.20
2023-02-13T08:08:22.218Z,10.20
2023-02-13T08:11:07.865Z,10.20
2023-02-13T08:13:37.331Z,10.20
2023-02-13T08:16:05.755Z,10.20
2023-02-13T08:18:33.814Z,10.20
2023-02-13T08:21:03.064Z,10.20
2023-02-13T08:23:32.627Z,10.20
2023-02-13T08:26:02.170Z,10.30
2023-02-13T08:28:30.470Z,10.30
2023-02-13T08:30:58.761Z,10.30
2023-02-13T08:33:26.955Z,10.30
2023-02-13T08:35:55.176Z,10.30
2023-02-13T08:38:24.314Z,10.30
2023-02-13T08:40:53.714Z,10.30
2023-02-13T08:43:21.796Z,10.30
2023-02-13T08:45:49.973Z,10.40
2023-02-13T08:48:18.024Z,10.40
2023-02-13T08:50:46.055Z,10.40
2023-02-13T08:53:14.110Z,10.50
2023-02-13T08:55:42.010Z,10.50
2023-02-13T08:58:11.338Z,10.50
2023-02-13T09:00:39.341Z,10.50
2023-02-13T09:03:09.171Z,10.60
2023-02-13T09:05:38.032Z,10.60
2023-02-13T09:08:08.108Z,10.60
2023-02-13T09:10:36.054Z,10.70
2023-02-13T09:13:04.067Z,10.70
2023-02-13T09:15:34.176Z,10.70
2023-02-13T09:18:02.206Z,10.80
2023-02-13T09:20:30.398Z,10.80
2023-02-13T09:22:58.429Z,10.80
2023-02-13T09:25:26.954Z,10.80
2023-02-13T09:27:54.940Z,10.80
2023-02-13T09:30:25.910Z,10.90
2023-02-13T09:32:55.917Z,10.90
2023-02-13T09:35:24.592Z,10.90
2023-02-13T09:37:52.596Z,11.00
2023-02-13T09:40:26.314Z,11.00
2023-02-13T09:42:58.555Z,11.10
2023-02-13T09:45:26.511Z,11.10
2023-02-13T09:47:56.051Z,11.10
2023-02-13T09:50:27.869Z,11.10
2023-02-13T09:52:57.538Z,11.20
2023-02-13T09:55:30.958Z,11.20
2023-02-13T09:58:05.059Z,11.20
2023-02-13T10:00:37.330Z,11.20
2023-02-13T10:03:30.137Z,11.30
2023-02-13T10:06:05.816Z,11.30
2023-02-13T10:08:43.313Z,11.40
2023-02-13T10:11:28.785Z,11.40
2023-02-13T10:14:05.997Z,11.40
2023-02-13T10:16:39.193Z,11.50
2023-02-13T10:19:20.295Z,11.50
2023-02-13T10:21:52.857Z,11.50
2023-02-13T10:24:33.866Z,11.50
2023-02-13T10:27:10.426Z,11.50
2023-02-13T10:30:00.794Z,11.60
2023-02-13T10:32:35.995Z,11.60
2023-02-13T10:35:17.037Z,11.70
2023-02-13T10:37:51.357Z,11.70
2023-02-13T10:40:20.317Z,11.70
2023-02-13T10:43:00.146Z,11.80
2023-02-13T10:45:47.043Z,11.80
2023-02-13T10:48:30.198Z,11.80
2023-02-13T10:51:05.325Z,11.80
2023-02-13T10:53:44.451Z,11.90
2023-02-13T10:56:19.693Z,11.90
2023-02-13T10:59:07.969Z,12.00
2023-02-13T11:01:46.356Z,12.00
2023-02-13T11:04:18.132Z,12.00
2023-02-13T11:06:57.049Z,12.00
2023-02-13T11:09:25.233Z,12.10
2023-02-13T11:11:54.241Z,12.10
2023-02-13T11:14:23.763Z,12.10
2023-02-13T11:16:56.056Z,12.20
2023-02-13T11:19:30.142Z,12.20
2023-02-13T11:22:03.871Z,12.20
2023-02-13T11:24:32.988Z,12.30
2023-02-13T11:27:05.820Z,12.30
2023-02-13T11:29:35.988Z,12.30
2023-02-13T11:32:19.551Z,12.30
2023-02-13T11:34:47.900Z,12.30
2023-02-13T11:37:21.272Z,12.30
2023-02-13T11:39:51.696Z,12.30
2023-02-13T11:42:25.825Z,12.40
2023-02-13T11:44:55.898Z,12.40
2023-02-13T11:47:41.879Z,12.50
2023-02-13T11:50:21.484Z,12.50
2023-02-13T11:52:58.686Z,12.50
2023-02-13T11:55:30.950Z,12.50
2023-02-13T11:58:01.544Z,12.60
2023-02-13T12:00:37.453Z,12.60
2023-02-13T12:03:27.110Z,12.60
2023-02-13T12:06:04.196Z,12.70
2023-02-13T12:08:35.992Z,12.70
2023-02-13T12:11:07.342Z,12.80
2023-02-13T12:13:38.985Z,12.80
2023-02-13T12:16:13.944Z,12.80
2023-02-13T12:18:45.309Z,12.80
2023-02-13T12:21:25.546Z,12.80
2023-02-13T12:24:01.130Z,12.90
2023-02-13T12:26:32.796Z,12.90
2023-02-13T12:29:16.421Z,13.00
2023-02-13T12:32:03.459Z,13.00
2023-02-13T12:35:15.865Z,13.00
2023-02-13T12:38:00.627Z,13.00
2023-02-13T12:40:59.711Z,13.10
2023-02-13T12:44:05.905Z,13.10
2023-02-13T12:46:42.510Z,13.10
2023-02-13T12:49:24.865Z,13.10
2023-02-13T12:52:05.517Z,13.10
2023-02-13T12:54:44.338Z,13.10
2023-02-13T12:57:36.703Z,13.20
2023-02-13T13:00:21.800Z,13.20
2023-02-13T13:03:03.282Z,13.30
2023-02-13T13:05:58.804Z,13.30
2023-02-13T13:08:47.178Z,13.40
2023-02-13T13:11:30.993Z,13.40
2023-02-13T13:14:10.347Z,13.40
2023-02-13T13:16:50.312Z,13.40
2023-02-13T13:19:27.403Z,13.40
2023-02-13T13:22:01.194Z,13.50
2023-02-13T13:24:43.746Z,13.50
2023-02-13T13:27:18.803Z,13.50
2023-02-13T13:29:52.826Z,13.60
2023-02-13T13:32:23.016Z,13.60
2023-02-13T13:34:50.979Z,13.70
2023-02-13T13:37:31.155Z,13.70
2023-02-13T13:40:07.461Z,13.70
2023-02-13T13:42:42.014Z,13.70
2023-02-13T13:45:29.175Z,13.70
2023-02-13T13:48:19.267Z,13.70
2023-02-13T13:50:48.028Z,13.80
2023-02-13T13:53:19.339Z,13.80
2023-02-13T13:56:09.175Z,13.80
2023-02-13T13:58:43.595Z,13.80
2023-02-13T14:01:29.099Z,13.80
2023-02-13T14:03:58.703Z,13.80
2023-02-13T14:06:29.368Z,13.80
2023-02-13T14:09:00.448Z,13.80
2023-02-13T14:11:47.160Z,13.90
2023-02-13T14:14:53.037Z,13.90
2023-02-13T14:17:56.484Z,13.90
2023-02-13T14:20:41.502Z,13.90
2023-02-13T14:23:23.791Z,13.90
2023-02-13T14:25:52.448Z,13.90
2023-02-13T14:28:24.666Z,13.90
2023-02-13T14:30:56.758Z,13.90
2023-02-13T14:33:29.493Z,14.00
2023-02-13T14:36:02.847Z,14.00
2023-02-13T14:38:31.693Z,14.00
2023-02-13T14:41:00.148Z,14.00
2023-02-13T14:43:38.965Z,14.10
2023-02-13T14:46:28.925Z,14.10
2023-02-13T14:49:02.691Z,14.10
2023-02-13T14:51:36.090Z,14.10
2023-02-13T14:54:10.819Z,14.10
2023-02-13T14:56:40.073Z,14.10
2023-02-13T14:59:15.869Z,14.10
2023-02-13T15:01:51.187Z,14.10
2023-02-13T15:04:30.147Z,14.10
2023-02-13T15:07:00.172Z,14.10
2023-02-13T15:09:33.523Z,14.10
2023-02-13T15:12:02.083Z,14.10
2023-02-13T15:14:35.269Z,14.10
2023-02-13T15:17:07.824Z,14.10
2023-02-13T15:19:40.249Z,14.10
2023-02-13T15:22:08.979Z,14.10
2023-02-13T15:24:44.652Z,14.10
2023-02-13T15:27:17.442Z,14.10
2023-02-13T15:29:55.861Z,14.10
2023-02-13T15:32:29.709Z,14.10
2023-02-13T15:34:59.183Z,14.10
2023-02-13T15:37:31.201Z,14.10
2023-02-13T15:40:15.075Z,14.10
2023-02-13T15:42:43.064Z,14.10
2023-02-13T15:45:17.797Z,14.10
2023-02-13T15:47:46.893Z,14.10
2023-02-13T15:50:19.027Z,14.10
2023-02-13T15:52:47.963Z,14.10
2023-02-13T15:55:23.876Z,14.10
2023-02-13T15:57:53.622Z,14.10
2023-02-13T16:00:25.970Z,14.10
2023-02-13T16:02:55.699Z,14.10
2023-02-13T16:05:39.509Z,14.10
2023-02-13T16:08:31.129Z,14.10
2023-02-13T16:11:19.334Z,14.10
2023-02-13T16:13:59.038Z,14.10
2023-02-13T16:16:27.822Z,14.00
2023-02-13T16:18:56.343Z,14.00
2023-02-13T16:21:29.129Z,14.00
2023-02-13T16:24:01.632Z,13.90
2023-02-13T16:26:31.415Z,13.90
2023-02-13T16:28:59.546Z,13.90
2023-02-13T16:31:27.656Z,13.90
2023-02-13T16:33:55.718Z,13.90
2023-02-13T16:36:31.292Z,13.90
2023-02-13T16:38:59.167Z,13.80
2023-02-13T16:41:34.869Z,13.80
2023-02-13T16:44:03.514Z,13.80
2023-02-13T16:46:38.738Z,13.80
2023-02-13T16:49:28.501Z,13.70
2023-02-13T16:52:11.403Z,13.70
2023-02-13T16:54:49.512Z,13.70
2023-02-13T16:57:24.489Z,13.70
2023-02-13T17:00:02.824Z,13.60
2023-02-13T17:02:32.973Z,13.60
2023-02-13T17:05:17.352Z,13.60
2023-02-13T17:07:48.340Z,13.50
2023-02-13T17:10:21.743Z,13.50
2023-02-13T17:12:51.101Z,13.50
2023-02-13T17:15:21.920Z,13.40
2023-02-13T17:17:51.238Z,13.40
2023-02-13T17:20:22.100Z,13.40
2023-02-13T17:22:53.060Z,13.30
2023-02-13T17:25:23.143Z,13.30
2023-02-13T17:27:52.024Z,13.20
2023-02-13T17:30:21.703Z,13.20
2023-02-13T17:32:51.292Z,13.10
2023-02-13T17:35:19.438Z,13.10
2023-02-13T17:37:47.443Z,13.10
2023-02-13T17:40:19.400Z,13.00
2023-02-13T17:42:50.980Z,13.00
2023-02-13T17:45:20.499Z,12.90
2023-02-13T17:47:48.582Z,12.90
2023-02-13T17:50:18.192Z,12.80
2023-02-13T17:52:47.588Z,12.80
2023-02-13T17:55:21.101Z,12.70
2023-02-13T17:57:49.741Z,12.70
2023-02-13T18:00:20.076Z,12.60
2023-02-13T18:02:48.665Z,12.60
2023-02-13T18:05:17.682Z,12.60
2023-02-13T18:07:46.380Z,12.50
2023-02-13T18:10:18.244Z,12.50
2023-02-13T18:12:47.596Z,12.40
2023-02-13T18:15:16.847Z,12.40
2023-02-13T18:17:44.948Z,12.30
2023-02-13T18:20:21.327Z,12.30
2023-02-13T18:22:51.095Z,12.20
2023-02-13T18:25:21.480Z,12.20
2023-02-13T18:27:49.819Z,12.20
2023-02-13T18:30:19.988Z,12.10
2023-02-13T18:32:52.675Z,12.10
2023-02-13T18:35:20.886Z,12.00
2023-02-13T18:37:49.104Z,12.00
2023-02-13T18:40:17.799Z,11.90
2023-02-13T18:42:47.607Z,11.90
2023-02-13T18:45:16.421Z,11.90
2023-02-13T18:47:44.579Z,11.90
2023-02-13T18:50:13.480Z,11.80
2023-02-13T18:52:41.480Z,11.80
2023-02-13T18:55:09.955Z,11.70
2023-02-13T18:57:43.325Z,11.70
2023-02-13T19:00:14.847Z,11.70
2023-02-13T19:02:42.879Z,11.60
2023-02-13T19:05:10.914Z,11.60
2023-02-13T19:07:38.880Z,11.60
2023-02-13T19:10:08.023Z,11.60
2023-02-13T19:12:36.110Z,11.60
2023-02-13T19:15:04.264Z,11.50
2023-02-13T19:17:34.892Z,11.50
2023-02-13T19:20:03.015Z,11.50
2023-02-13T19:22:31.077Z,11.40
2023-02-13T19:24:59.129Z,11.40
2023-02-13T19:27:27.180Z,11.40
2023-02-13T19:29:55.127Z,11.40
2023-02-13T19:32:23.179Z,11.40
2023-02-13T19:34:52.934Z,11.30
2023-02-13T19:37:20.885Z,11.30
2023-02-13T19:39:48.829Z,11.30
2023-02-13T19:42:16.837Z,11.30
2023-02-13T19:44:44.818Z,11.30
2023-02-13T19:47:12.876Z,11.20
2023-02-13T19:49:40.905Z,11.20
2023-02-13T19:52:10.434Z,11.20
2023-02-13T19:54:38.471Z,11.20
2023-02-13T19:57:06.454Z,11.20
2023-02-13T19:59:34.404Z,11.20
2023-02-13T20:02:02.490Z,11.20
2023-02-13T20:04:32.178Z,11.20
2023-02-13T20:07:00.186Z,11.10
2023-02-13T20:09:29.532Z,11.10
2023-02-13T20:11:57.508Z,11.20
2023-02-13T20:14:25.543Z,11.10
2023-02-13T20:16:53.430Z,11.20
2023-02-13T20:19:21.382Z,11.20
2023-02-13T20:21:49.457Z,11.20
2023-02-13T20:24:17.595Z,11.20
2023-02-13T20:26:47.012Z,11.20
2023-02-13T20:29:15.668Z,11.20
2023-02-13T20:31:43.821Z,11.20
2023-02-13T20:34:11.851Z,11.20
2023-02-13T20:36:39.933Z,11.20
2023-02-13T20:39:08.731Z,11.20
2023-02-13T20:41:38.428Z,11.20
2023-02-13T20:44:11.328Z,11.20
2023-02-13T20:46:40.862Z,11.20
2023-02-13T20:49:09.556Z,11.30
2023-02-13T20:51:37.642Z,11.30
2023-02-13T20:54:06.104Z,11.30
2023-02-13T20:56:34.094Z,11.20
2023-02-13T20:59:03.244Z,11.20
2023-02-13T21:01:34.904Z,11.20
2023-02-13T21:04:03.363Z,11.20
2023-02-13T21:06:33.622Z,11.20
2023-02-13T21:09:02.691Z,11.20
2023-02-13T21:11:30.827Z,11.20
2023-02-13T21:13:59.251Z,11.20
2023-02-13T21:16:29.652Z,11.20
2023-02-13T21:19:00.871Z,11.20
2023-02-13T21:21:31.359Z,11.20
2023-02-13T21:24:01.708Z,11.20
2023-02-13T21:26:30.649Z,11.20
2023-02-13T21:28:58.732Z,11.20
2023-02-13T21:31:30.340Z,11.10
2023-02-13T21:34:02.960Z,11.10
2023-02-13T21:36:31.615Z,11.10
2023-02-13T21:39:00.653Z,11.10
2023-02-13T21:41:28.868Z,11.10
2023-02-13T21:43:56.867Z,11.10
2023-02-13T21:46:26.650Z,11.10
2023-02-13T21:48:55.912Z,11.10
2023-02-13T21:51:26.721Z,11.00
2023-02-13T21:53:55.417Z,11.10
2023-02-13T21:56:25.275Z,11.00
2023-02-13T21:58:53.951Z,11.00
2023-02-13T22:01:26.884Z,11.00
2023-02-13T22:03:59.963Z,11.00
2023-02-13T22:06:31.273Z,11.00
2023-02-13T22:09:00.695Z,11.00
2023-02-13T22:11:29.739Z,11.00
2023-02-13T22:14:01.630Z,10.90
2023-02-13T22:16:30.861Z,10.90
2023-02-13T22:18:59.790Z,10.90
2023-02-13T22:21:31.449Z,10.90
2023-02-13T22:23:59.872Z,10.90
2023-02-13T22:26:29.564Z,10.90
2023-02-13T22:29:00.778Z,10.90
2023-02-13T22:31:29.178Z,10.90
2023-02-13T22:34:05.544Z,10.80
2023-02-13T22:36:38.831Z,10.80
2023-02-13T22:39:07.802Z,10.80
2023-02-13T22:41:35.856Z,10.80
2023-02-13T22:44:04.295Z,10.80
2023-02-13T22:46:34.419Z,10.80
2023-02-13T22:49:02.827Z,10.80
2023-02-13T22:51:32.476Z,10.80
2023-02-13T22:54:02.543Z,10.70
2023-02-13T22:56:31.933Z,10.70
2023-02-13T22:59:00.372Z,10.70
2023-02-13T23:01:29.817Z,10.70
2023-02-13T23:03:58.672Z,10.70
2023-02-13T23:06:27.177Z,10.70
2023-02-13T23:08:55.655Z,10.60
2023-02-13T23:11:43.790Z,10.60
2023-02-13T23:14:12.572Z,10.50
2023-02-13T23:16:59.252Z,10.50
2023-02-13T23:19:27.797Z,10.50
2023-02-13T23:21:56.616Z,10.40
2023-02-13T23:24:24.738Z,10.40
2023-02-13T23:26:54.082Z,10.40
2023-02-13T23:29:22.284Z,10.40
2023-02-13T23:31:50.423Z,10.30
2023-02-13T23:34:18.606Z,10.30
2023-02-13T23:36:46.605Z,10.30
2023-02-13T23:39:14.861Z,10.30
2023-02-13T23:41:42.879Z,10.30
2023-02-13T23:44:12.223Z,10.20
2023-02-13T23:46:40.418Z,10.20
2023-02-13T23:49:08.429Z,10.20
2023-02-13T23:51:36.349Z,10.10
2023-02-13T23:54:04.883Z,10.10
2023-02-13T23:56:32.970Z,10.10
2023-02-13T23:59:00.961Z,10.10
